sensor_id;sensor_type;location;lat;lon;timestamp;temperature;humidity
11152;DHT22;5630;49.342;10.802;2022-10-20T00:02:22;7.80;99.90
11152;DHT22;5630;49.342;10.802;2022-10-20T00:04:48;7.80;99.90
11152;DHT22;5630;49.342;10.802;2022-10-20T00:07:13;7.70;99.90
11152;DHT22;5630;49.342;10.802;2022-10-20T00:09:39;7.70;99.90
11152;DHT22;5630;49.342;10.802;2022-10-20T00:12:04;7.70;99.90
11152;DHT22;5630;49.342;10.802;2022-10-20T00:14:30;7.70;99.90
11152;DHT22;5630;49.342;10.802;2022-10-20T00:16:55;7.60;99.90
11152;DHT22;5630;49.342;10.802;2022-10-20T00:19:22;7.60;99.90
11152;DHT22;5630;49.342;10.802;2022-10-20T00:21:48;7.60;99.90
11152;DHT22;5630;49.342;10.802;2022-10-20T00:24:13;7.50;99.90
11152;DHT22;5630;49.342;10.802;2022-10-20T00:26:39;7.50;99.90
11152;DHT22;5630;49.342;10.802;2022-10-20T00:29:04;7.50;99.90
11152;DHT22;5630;49.342;10.802;2022-10-20T00:31:30;7.50;99.90
11152;DHT22;5630;49.342;10.802;2022-10-20T00:33:56;7.50;99.90
11152;DHT22;5630;49.342;10.802;2022-10-20T00:36:22;7.50;99.90
11152;DHT22;5630;49.342;10.802;2022-10-20T00:38:49;7.50;99.90
11152;DHT22;5630;49.342;10.802;2022-10-20T00:41:17;7.50;99.90
11152;DHT22;5630;49.342;10.802;2022-10-20T00:43:47;7.50;99.90
11152;DHT22;5630;49.342;10.802;2022-10-20T00:46:20;7.50;99.90
11152;DHT22;5630;49.342;10.802;2022-10-20T00:48:50;7.50;99.90
11152;DHT22;5630;49.342;10.802;2022-10-20T00:51:19;7.50;99.90
11152;DHT22;5630;49.342;10.802;2022-10-20T00:53:48;7.50;99.90
11152;DHT22;5630;49.342;10.802;2022-10-20T00:56:14;7.50;99.90
11152;DHT22;5630;49.342;10.802;2022-10-20T00:58:41;7.50;99.90
11152;DHT22;5630;49.342;10.802;2022-10-20T01:01:07;7.50;99.90
11152;DHT22;5630;49.342;10.802;2022-10-20T01:03:41;7.40;99.90
11152;DHT22;5630;49.342;10.802;2022-10-20T01:06:10;7.40;99.90
11152;DHT22;5630;49.342;10.802;2022-10-20T01:08:36;7.40;99.90
11152;DHT22;5630;49.342;10.802;2022-10-20T01:19:01;7.30;99.90
11152;DHT22;5630;49.342;10.802;2022-10-20T01:22:07;7.30;99.90
11152;DHT22;5630;49.342;10.802;2022-10-20T01:24:52;7.30;99.90
11152;DHT22;5630;49.342;10.802;2022-10-20T01:27:35;7.30;99.90
11152;DHT22;5630;49.342;10.802;2022-10-20T01:30:09;7.30;99.90
11152;DHT22;5630;49.342;10.802;2022-10-20T01:35:16;7.20;99.90
11152;DHT22;5630;49.342;10.802;2022-10-20T01:40:28;7.20;99.90
11152;DHT22;5630;49.342;10.802;2022-10-20T01:42:57;7.20;99.90
11152;DHT22;5630;49.342;10.802;2022-10-20T01:45:27;7.30;99.90
11152;DHT22;5630;49.342;10.802;2022-10-20T01:47:57;7.30;99.90
11152;DHT22;5630;49.342;10.802;2022-10-20T01:50:22;7.20;99.90
11152;DHT22;5630;49.342;10.802;2022-10-20T01:52:49;7.20;99.90
11152;DHT22;5630;49.342;10.802;2022-10-20T01:55:16;7.20;99.90
11152;DHT22;5630;49.342;10.802;2022-10-20T02:00:27;7.20;99.90
11152;DHT22;5630;49.342;10.802;2022-10-20T02:06:34;7.20;99.90
11152;DHT22;5630;49.342;10.802;2022-10-20T02:09:17;7.10;99.90
11152;DHT22;5630;49.342;10.802;2022-10-20T02:12:06;7.10;99.90
11152;DHT22;5630;49.342;10.802;2022-10-20T02:14:32;7.00;99.90
11152;DHT22;5630;49.342;10.802;2022-10-20T02:17:03;7.00;99.90
11152;DHT22;5630;49.342;10.802;2022-10-20T02:19:33;7.00;99.90
11152;DHT22;5630;49.342;10.802;2022-10-20T02:22:00;7.00;99.90
11152;DHT22;5630;49.342;10.802;2022-10-20T02:24:31;6.90;99.90
11152;DHT22;5630;49.342;10.802;2022-10-20T02:27:02;6.90;99.90
11152;DHT22;5630;49.342;10.802;2022-10-20T02:29:32;6.90;99.90
11152;DHT22;5630;49.342;10.802;2022-10-20T02:32:00;6.90;99.90
11152;DHT22;5630;49.342;10.802;2022-10-20T02:34:26;6.90;99.90
11152;DHT22;5630;49.342;10.802;2022-10-20T02:36:55;6.90;99.90
11152;DHT22;5630;49.342;10.802;2022-10-20T02:41:47;6.80;99.90
11152;DHT22;5630;49.342;10.802;2022-10-20T02:44:12;6.80;99.90
11152;DHT22;5630;49.342;10.802;2022-10-20T02:46:38;6.80;99.90
11152;DHT22;5630;49.342;10.802;2022-10-20T02:49:03;6.80;99.90
11152;DHT22;5630;49.342;10.802;2022-10-20T02:51:29;6.80;99.90
11152;DHT22;5630;49.342;10.802;2022-10-20T02:53:55;6.80;99.90
11152;DHT22;5630;49.342;10.802;2022-10-20T02:56:21;6.80;99.90
11152;DHT22;5630;49.342;10.802;2022-10-20T02:58:47;6.70;99.90
11152;DHT22;5630;49.342;10.802;2022-10-20T03:01:12;6.70;99.90
11152;DHT22;5630;49.342;10.802;2022-10-20T03:03:38;6.70;99.90
11152;DHT22;5630;49.342;10.802;2022-10-20T03:06:09;6.70;99.90
11152;DHT22;5630;49.342;10.802;2022-10-20T03:08:35;6.70;99.90
11152;DHT22;5630;49.342;10.802;2022-10-20T03:11:00;6.70;99.90
11152;DHT22;5630;49.342;10.802;2022-10-20T03:13:26;6.70;99.90
11152;DHT22;5630;49.342;10.802;2022-10-20T03:15:51;6.60;99.90
11152;DHT22;5630;49.342;10.802;2022-10-20T03:18:17;6.70;99.90
11152;DHT22;5630;49.342;10.802;2022-10-20T03:20:43;6.70;99.90
11152;DHT22;5630;49.342;10.802;2022-10-20T03:23:08;6.70;99.90
11152;DHT22;5630;49.342;10.802;2022-10-20T03:25:34;6.60;99.90
11152;DHT22;5630;49.342;10.802;2022-10-20T03:27:59;6.60;99.90
11152;DHT22;5630;49.342;10.802;2022-10-20T03:30:25;6.70;99.90
11152;DHT22;5630;49.342;10.802;2022-10-20T03:32:51;6.70;99.90
11152;DHT22;5630;49.342;10.802;2022-10-20T03:35:16;6.70;99.90
11152;DHT22;5630;49.342;10.802;2022-10-20T03:37:42;6.70;99.90
11152;DHT22;5630;49.342;10.802;2022-10-20T03:40:08;6.70;99.90
11152;DHT22;5630;49.342;10.802;2022-10-20T03:42:33;6.70;99.90
11152;DHT22;5630;49.342;10.802;2022-10-20T03:44:59;6.70;99.90
11152;DHT22;5630;49.342;10.802;2022-10-20T03:47:25;6.70;99.90
11152;DHT22;5630;49.342;10.802;2022-10-20T03:49:50;6.60;99.90
11152;DHT22;5630;49.342;10.802;2022-10-20T03:52:16;6.70;99.90
11152;DHT22;5630;49.342;10.802;2022-10-20T03:54:41;6.70;99.90
11152;DHT22;5630;49.342;10.802;2022-10-20T03:57:07;6.70;99.90
11152;DHT22;5630;49.342;10.802;2022-10-20T03:59:32;6.70;99.90
11152;DHT22;5630;49.342;10.802;2022-10-20T04:01:58;6.70;99.90
11152;DHT22;5630;49.342;10.802;2022-10-20T04:04:23;6.70;99.90
11152;DHT22;5630;49.342;10.802;2022-10-20T04:06:49;6.60;99.90
11152;DHT22;5630;49.342;10.802;2022-10-20T04:09:15;6.70;99.90
11152;DHT22;5630;49.342;10.802;2022-10-20T04:11:40;6.70;99.90
11152;DHT22;5630;49.342;10.802;2022-10-20T04:14:06;6.70;99.90
11152;DHT22;5630;49.342;10.802;2022-10-20T04:16:31;6.70;99.90
11152;DHT22;5630;49.342;10.802;2022-10-20T04:18:57;6.60;99.90
11152;DHT22;5630;49.342;10.802;2022-10-20T04:21:22;6.60;99.90
11152;DHT22;5630;49.342;10.802;2022-10-20T04:23:49;6.60;99.90
11152;DHT22;5630;49.342;10.802;2022-10-20T04:26:15;6.60;99.90
11152;DHT22;5630;49.342;10.802;2022-10-20T04:28:41;6.60;99.90
11152;DHT22;5630;49.342;10.802;2022-10-20T04:31:07;6.60;99.90
11152;DHT22;5630;49.342;10.802;2022-10-20T04:33:33;6.60;99.90
11152;DHT22;5630;49.342;10.802;2022-10-20T04:36:00;6.70;99.90
11152;DHT22;5630;49.342;10.802;2022-10-20T04:38:29;6.70;99.90
11152;DHT22;5630;49.342;10.802;2022-10-20T04:40:56;6.70;99.90
11152;DHT22;5630;49.342;10.802;2022-10-20T04:43:21;6.70;99.90
11152;DHT22;5630;49.342;10.802;2022-10-20T04:45:47;6.80;99.90
11152;DHT22;5630;49.342;10.802;2022-10-20T04:48:13;6.80;99.90
11152;DHT22;5630;49.342;10.802;2022-10-20T04:50:38;6.80;99.90
11152;DHT22;5630;49.342;10.802;2022-10-20T04:53:04;6.80;99.90
11152;DHT22;5630;49.342;10.802;2022-10-20T04:55:30;6.80;99.90
11152;DHT22;5630;49.342;10.802;2022-10-20T04:57:55;6.80;99.90
11152;DHT22;5630;49.342;10.802;2022-10-20T05:00:21;6.90;99.90
11152;DHT22;5630;49.342;10.802;2022-10-20T05:02:46;6.80;99.90
11152;DHT22;5630;49.342;10.802;2022-10-20T05:05:12;6.80;99.90
11152;DHT22;5630;49.342;10.802;2022-10-20T05:07:37;6.80;99.90
11152;DHT22;5630;49.342;10.802;2022-10-20T05:10:03;6.80;99.90
11152;DHT22;5630;49.342;10.802;2022-10-20T05:12:29;6.80;99.90
11152;DHT22;5630;49.342;10.802;2022-10-20T05:14:55;6.80;99.90
11152;DHT22;5630;49.342;10.802;2022-10-20T05:17:20;6.80;99.90
11152;DHT22;5630;49.342;10.802;2022-10-20T05:19:46;6.80;99.90
11152;DHT22;5630;49.342;10.802;2022-10-20T05:22:11;6.80;99.90
11152;DHT22;5630;49.342;10.802;2022-10-20T05:24:37;6.90;99.90
11152;DHT22;5630;49.342;10.802;2022-10-20T05:27:02;6.90;99.90
11152;DHT22;5630;49.342;10.802;2022-10-20T05:29:28;6.90;99.90
11152;DHT22;5630;49.342;10.802;2022-10-20T05:31:54;6.90;99.90
11152;DHT22;5630;49.342;10.802;2022-10-20T05:34:19;6.90;99.90
11152;DHT22;5630;49.342;10.802;2022-10-20T05:36:45;7.00;99.90
11152;DHT22;5630;49.342;10.802;2022-10-20T05:39:10;7.00;99.90
11152;DHT22;5630;49.342;10.802;2022-10-20T05:41:36;7.00;99.90
11152;DHT22;5630;49.342;10.802;2022-10-20T05:44:03;7.00;99.90
11152;DHT22;5630;49.342;10.802;2022-10-20T05:46:32;7.10;99.90
11152;DHT22;5630;49.342;10.802;2022-10-20T05:49:00;7.10;99.90
11152;DHT22;5630;49.342;10.802;2022-10-20T05:51:28;7.10;99.90
11152;DHT22;5630;49.342;10.802;2022-10-20T05:53:54;7.10;99.90
11152;DHT22;5630;49.342;10.802;2022-10-20T05:56:21;7.10;99.90
11152;DHT22;5630;49.342;10.802;2022-10-20T05:58:47;7.10;99.90
11152;DHT22;5630;49.342;10.802;2022-10-20T06:01:18;7.20;99.90
11152;DHT22;5630;49.342;10.802;2022-10-20T06:03:55;7.20;99.90
11152;DHT22;5630;49.342;10.802;2022-10-20T06:06:25;7.20;99.90
11152;DHT22;5630;49.342;10.802;2022-10-20T06:08:52;7.30;99.90
11152;DHT22;5630;49.342;10.802;2022-10-20T06:11:18;7.30;99.90
11152;DHT22;5630;49.342;10.802;2022-10-20T06:13:44;7.30;99.90
11152;DHT22;5630;49.342;10.802;2022-10-20T06:16:16;7.30;99.90
11152;DHT22;5630;49.342;10.802;2022-10-20T06:18:41;7.30;99.90
11152;DHT22;5630;49.342;10.802;2022-10-20T06:21:23;7.40;99.90
11152;DHT22;5630;49.342;10.802;2022-10-20T06:23:49;7.40;99.90
11152;DHT22;5630;49.342;10.802;2022-10-20T06:26:17;7.40;99.90
11152;DHT22;5630;49.342;10.802;2022-10-20T06:28:45;7.40;99.90
11152;DHT22;5630;49.342;10.802;2022-10-20T06:33:44;9.60;99.90
11152;DHT22;5630;49.342;10.802;2022-10-20T06:36:11;10.50;99.90
11152;DHT22;5630;49.342;10.802;2022-10-20T06:41:15;11.10;99.90
11152;DHT22;5630;49.342;10.802;2022-10-20T06:43:41;11.60;99.90
11152;DHT22;5630;49.342;10.802;2022-10-20T06:46:14;11.20;99.90
11152;DHT22;5630;49.342;10.802;2022-10-20T06:48:41;10.80;99.90
11152;DHT22;5630;49.342;10.802;2022-10-20T06:51:10;10.40;99.90
11152;DHT22;5630;49.342;10.802;2022-10-20T06:53:36;10.00;99.90
11152;DHT22;5630;49.342;10.802;2022-10-20T06:56:07;9.70;99.90
11152;DHT22;5630;49.342;10.802;2022-10-20T06:58:34;9.40;99.90
11152;DHT22;5630;49.342;10.802;2022-10-20T07:01:06;9.20;99.90
11152;DHT22;5630;49.342;10.802;2022-10-20T07:03:34;9.00;99.90
11152;DHT22;5630;49.342;10.802;2022-10-20T07:06:02;8.90;99.90
11152;DHT22;5630;49.342;10.802;2022-10-20T07:08:29;8.80;99.90
11152;DHT22;5630;49.342;10.802;2022-10-20T07:11:11;8.70;99.90
11152;DHT22;5630;49.342;10.802;2022-10-20T07:13:37;8.70;99.90
11152;DHT22;5630;49.342;10.802;2022-10-20T07:16:04;8.60;99.90
11152;DHT22;5630;49.342;10.802;2022-10-20T07:18:30;8.60;99.90
11152;DHT22;5630;49.342;10.802;2022-10-20T07:20:58;8.60;99.90
11152;DHT22;5630;49.342;10.802;2022-10-20T07:23:25;8.70;99.90
11152;DHT22;5630;49.342;10.802;2022-10-20T07:25:51;8.80;99.90
11152;DHT22;5630;49.342;10.802;2022-10-20T07:28:16;8.90;99.90
11152;DHT22;5630;49.342;10.802;2022-10-20T07:30:42;8.90;99.90
11152;DHT22;5630;49.342;10.802;2022-10-20T07:33:08;8.90;99.90
11152;DHT22;5630;49.342;10.802;2022-10-20T07:35:34;8.90;99.90
11152;DHT22;5630;49.342;10.802;2022-10-20T07:38:00;9.00;99.90
11152;DHT22;5630;49.342;10.802;2022-10-20T07:40:26;9.00;99.90
11152;DHT22;5630;49.342;10.802;2022-10-20T07:42:52;9.10;99.90
11152;DHT22;5630;49.342;10.802;2022-10-20T07:45:18;9.20;99.90
11152;DHT22;5630;49.342;10.802;2022-10-20T07:47:43;9.20;99.90
11152;DHT22;5630;49.342;10.802;2022-10-20T07:50:09;9.20;99.90
11152;DHT22;5630;49.342;10.802;2022-10-20T07:52:37;9.30;99.90
11152;DHT22;5630;49.342;10.802;2022-10-20T07:55:03;9.30;99.90
11152;DHT22;5630;49.342;10.802;2022-10-20T07:57:29;9.30;99.90
11152;DHT22;5630;49.342;10.802;2022-10-20T07:59:54;9.40;99.90
11152;DHT22;5630;49.342;10.802;2022-10-20T08:02:20;10.00;99.90
11152;DHT22;5630;49.342;10.802;2022-10-20T08:04:48;10.60;99.90
11152;DHT22;5630;49.342;10.802;2022-10-20T08:07:13;11.20;99.90
11152;DHT22;5630;49.342;10.802;2022-10-20T08:09:39;11.40;99.90
11152;DHT22;5630;49.342;10.802;2022-10-20T08:14:31;11.90;99.90
11152;DHT22;5630;49.342;10.802;2022-10-20T08:16:59;12.00;99.90
11152;DHT22;5630;49.342;10.802;2022-10-20T08:19:25;11.70;99.90
11152;DHT22;5630;49.342;10.802;2022-10-20T08:21:51;11.50;99.90
11152;DHT22;5630;49.342;10.802;2022-10-20T08:24:17;11.30;99.90
11152;DHT22;5630;49.342;10.802;2022-10-20T08:26:42;11.20;99.90
11152;DHT22;5630;49.342;10.802;2022-10-20T08:29:08;11.10;99.90
11152;DHT22;5630;49.342;10.802;2022-10-20T08:31:34;11.10;99.90
11152;DHT22;5630;49.342;10.802;2022-10-20T08:34:00;11.10;99.90
11152;DHT22;5630;49.342;10.802;2022-10-20T08:36:25;11.00;99.90
11152;DHT22;5630;49.342;10.802;2022-10-20T08:38:52;11.10;99.90
11152;DHT22;5630;49.342;10.802;2022-10-20T08:41:22;11.10;99.90
11152;DHT22;5630;49.342;10.802;2022-10-20T08:43:51;11.10;99.90
11152;DHT22;5630;49.342;10.802;2022-10-20T08:46:20;11.20;99.90
11152;DHT22;5630;49.342;10.802;2022-10-20T08:48:47;11.20;99.90
11152;DHT22;5630;49.342;10.802;2022-10-20T08:51:26;11.10;99.90
11152;DHT22;5630;49.342;10.802;2022-10-20T08:53:54;11.20;99.90
11152;DHT22;5630;49.342;10.802;2022-10-20T08:56:23;11.20;99.90
11152;DHT22;5630;49.342;10.802;2022-10-20T08:58:49;11.20;99.90
11152;DHT22;5630;49.342;10.802;2022-10-20T09:01:26;11.30;99.90
11152;DHT22;5630;49.342;10.802;2022-10-20T09:04:08;11.30;99.90
11152;DHT22;5630;49.342;10.802;2022-10-20T09:06:40;11.40;99.90
11152;DHT22;5630;49.342;10.802;2022-10-20T09:09:11;11.50;99.90
11152;DHT22;5630;49.342;10.802;2022-10-20T09:11:38;11.50;99.90
11152;DHT22;5630;49.342;10.802;2022-10-20T09:14:07;11.50;99.90
11152;DHT22;5630;49.342;10.802;2022-10-20T09:16:34;11.60;99.90
11152;DHT22;5630;49.342;10.802;2022-10-20T09:19:06;11.60;99.90
11152;DHT22;5630;49.342;10.802;2022-10-20T09:21:35;11.90;99.90
11152;DHT22;5630;49.342;10.802;2022-10-20T09:24:04;12.30;99.90
11152;DHT22;5630;49.342;10.802;2022-10-20T09:29:07;12.80;99.90
11152;DHT22;5630;49.342;10.802;2022-10-20T09:31:35;12.80;99.90
11152;DHT22;5630;49.342;10.802;2022-10-20T09:36:44;12.80;99.90
11152;DHT22;5630;49.342;10.802;2022-10-20T09:39:21;12.90;99.90
11152;DHT22;5630;49.342;10.802;2022-10-20T09:41:47;12.90;99.90
11152;DHT22;5630;49.342;10.802;2022-10-20T09:44:16;12.90;99.90
11152;DHT22;5630;49.342;10.802;2022-10-20T09:52:02;13.20;99.90
11152;DHT22;5630;49.342;10.802;2022-10-20T09:54:29;13.80;99.90
11152;DHT22;5630;49.342;10.802;2022-10-20T09:57:03;14.00;99.90
11152;DHT22;5630;49.342;10.802;2022-10-20T10:04:46;14.30;99.90
11152;DHT22;5630;49.342;10.802;2022-10-20T10:09:56;14.40;99.90
11152;DHT22;5630;49.342;10.802;2022-10-20T10:12:24;14.60;99.90
11152;DHT22;5630;49.342;10.802;2022-10-20T10:14:58;14.90;99.90
11152;DHT22;5630;49.342;10.802;2022-10-20T10:17:41;15.10;99.90
11152;DHT22;5630;49.342;10.802;2022-10-20T10:22:35;15.50;99.90
11152;DHT22;5630;49.342;10.802;2022-10-20T10:25:02;15.60;99.90
11152;DHT22;5630;49.342;10.802;2022-10-20T10:27:31;15.70;99.90
11152;DHT22;5630;49.342;10.802;2022-10-20T10:32:46;15.80;99.90
11152;DHT22;5630;49.342;10.802;2022-10-20T10:35:26;15.80;99.90
11152;DHT22;5630;49.342;10.802;2022-10-20T10:37:53;15.80;99.90
11152;DHT22;5630;49.342;10.802;2022-10-20T10:41:08;16.00;99.90
11152;DHT22;5630;49.342;10.802;2022-10-20T10:46:00;16.30;99.90
11152;DHT22;5630;49.342;10.802;2022-10-20T10:48:34;16.40;99.90
11152;DHT22;5630;49.342;10.802;2022-10-20T10:51:19;16.40;99.90
11152;DHT22;5630;49.342;10.802;2022-10-20T10:54:02;16.40;99.90
11152;DHT22;5630;49.342;10.802;2022-10-20T10:56:41;16.40;99.90
11152;DHT22;5630;49.342;10.802;2022-10-20T11:07:44;16.50;99.90
11152;DHT22;5630;49.342;10.802;2022-10-20T11:15:43;16.90;99.90
11152;DHT22;5630;49.342;10.802;2022-10-20T11:18:55;17.00;99.90
11152;DHT22;5630;49.342;10.802;2022-10-20T11:21:17;17.10;99.90
11152;DHT22;5630;49.342;10.802;2022-10-20T11:24:07;17.10;99.90
11152;DHT22;5630;49.342;10.802;2022-10-20T11:26:43;17.20;99.90
11152;DHT22;5630;49.342;10.802;2022-10-20T11:37:41;17.20;99.90
11152;DHT22;5630;49.342;10.802;2022-10-20T11:45:30;17.50;99.90
11152;DHT22;5630;49.342;10.802;2022-10-20T12:02:01;17.00;99.90
11152;DHT22;5630;49.342;10.802;2022-10-20T12:07:45;17.10;99.90
11152;DHT22;5630;49.342;10.802;2022-10-20T12:14:09;16.80;99.90
11152;DHT22;5630;49.342;10.802;2022-10-20T12:16:00;16.90;99.90
11152;DHT22;5630;49.342;10.802;2022-10-20T12:20:59;16.80;99.90
11152;DHT22;5630;49.342;10.802;2022-10-20T12:28:54;16.70;99.90
11152;DHT22;5630;49.342;10.802;2022-10-20T12:31:20;16.80;99.90
11152;DHT22;5630;49.342;10.802;2022-10-20T12:38:50;16.80;99.90
11152;DHT22;5630;49.342;10.802;2022-10-20T12:41:26;16.80;99.90
11152;DHT22;5630;49.342;10.802;2022-10-20T12:43:57;16.80;99.90
11152;DHT22;5630;49.342;10.802;2022-10-20T12:46:28;16.90;99.90
11152;DHT22;5630;49.342;10.802;2022-10-20T12:48:58;16.90;99.90
11152;DHT22;5630;49.342;10.802;2022-10-20T12:54:00;16.70;99.90
11152;DHT22;5630;49.342;10.802;2022-10-20T12:56:32;16.70;99.90
11152;DHT22;5630;49.342;10.802;2022-10-20T13:04:56;16.70;99.90
11152;DHT22;5630;49.342;10.802;2022-10-20T13:10:30;16.60;99.90
11152;DHT22;5630;49.342;10.802;2022-10-20T13:16:02;16.70;99.90
11152;DHT22;5630;49.342;10.802;2022-10-20T13:18:26;16.70;99.90
11152;DHT22;5630;49.342;10.802;2022-10-20T13:21:24;16.80;99.90
11152;DHT22;5630;49.342;10.802;2022-10-20T13:23:59;16.80;99.90
11152;DHT22;5630;49.342;10.802;2022-10-20T13:26:30;16.70;99.90
11152;DHT22;5630;49.342;10.802;2022-10-20T13:28:58;16.80;99.90
11152;DHT22;5630;49.342;10.802;2022-10-20T13:31:30;16.80;99.90
11152;DHT22;5630;49.342;10.802;2022-10-20T13:34:59;16.80;99.90
11152;DHT22;5630;49.342;10.802;2022-10-20T13:40:12;16.70;99.90
11152;DHT22;5630;49.342;10.802;2022-10-20T13:42:49;16.60;99.90
11152;DHT22;5630;49.342;10.802;2022-10-20T13:48:26;16.50;99.90
11152;DHT22;5630;49.342;10.802;2022-10-20T13:51:12;16.70;99.90
11152;DHT22;5630;49.342;10.802;2022-10-20T13:53:42;16.80;99.90
11152;DHT22;5630;49.342;10.802;2022-10-20T13:58:41;16.60;99.90
11152;DHT22;5630;49.342;10.802;2022-10-20T14:01:21;16.50;99.90
11152;DHT22;5630;49.342;10.802;2022-10-20T14:03:47;16.40;99.90
11152;DHT22;5630;49.342;10.802;2022-10-20T14:06:30;16.30;99.90
11152;DHT22;5630;49.342;10.802;2022-10-20T14:08:58;16.20;99.90
11152;DHT22;5630;49.342;10.802;2022-10-20T14:11:27;16.10;99.90
11152;DHT22;5630;49.342;10.802;2022-10-20T14:13:55;16.10;99.90
11152;DHT22;5630;49.342;10.802;2022-10-20T14:16:26;16.00;99.90
11152;DHT22;5630;49.342;10.802;2022-10-20T14:19:04;15.90;99.90
11152;DHT22;5630;49.342;10.802;2022-10-20T14:21:44;15.90;99.90
11152;DHT22;5630;49.342;10.802;2022-10-20T14:24:14;15.90;99.90
11152;DHT22;5630;49.342;10.802;2022-10-20T14:26:42;15.80;99.90
11152;DHT22;5630;49.342;10.802;2022-10-20T14:29:13;15.80;99.90
11152;DHT22;5630;49.342;10.802;2022-10-20T14:31:41;15.70;99.90
11152;DHT22;5630;49.342;10.802;2022-10-20T14:34:24;15.70;99.90
11152;DHT22;5630;49.342;10.802;2022-10-20T14:36:51;15.70;99.90
11152;DHT22;5630;49.342;10.802;2022-10-20T14:39:25;15.70;99.90
11152;DHT22;5630;49.342;10.802;2022-10-20T14:41:56;15.60;99.90
11152;DHT22;5630;49.342;10.802;2022-10-20T14:44:23;15.60;99.90
11152;DHT22;5630;49.342;10.802;2022-10-20T14:46:50;15.50;99.90
11152;DHT22;5630;49.342;10.802;2022-10-20T14:49:30;15.50;99.90
11152;DHT22;5630;49.342;10.802;2022-10-20T14:51:58;15.50;99.90
11152;DHT22;5630;49.342;10.802;2022-10-20T14:54:36;15.50;99.90
11152;DHT22;5630;49.342;10.802;2022-10-20T15:02:41;15.30;99.90
11152;DHT22;5630;49.342;10.802;2022-10-20T15:05:32;15.20;99.90
11152;DHT22;5630;49.342;10.802;2022-10-20T15:08:05;15.10;99.90
11152;DHT22;5630;49.342;10.802;2022-10-20T15:10:31;15.10;99.90
11152;DHT22;5630;49.342;10.802;2022-10-20T15:12:57;15.10;99.90
11152;DHT22;5630;49.342;10.802;2022-10-20T15:15:26;15.10;99.90
11152;DHT22;5630;49.342;10.802;2022-10-20T15:22:57;14.80;99.90
11152;DHT22;5630;49.342;10.802;2022-10-20T15:25:24;14.60;99.90
11152;DHT22;5630;49.342;10.802;2022-10-20T15:27:51;14.60;99.90
11152;DHT22;5630;49.342;10.802;2022-10-20T15:30:22;14.60;99.90
11152;DHT22;5630;49.342;10.802;2022-10-20T15:32:48;14.60;99.90
11152;DHT22;5630;49.342;10.802;2022-10-20T15:35:17;14.40;99.90
11152;DHT22;5630;49.342;10.802;2022-10-20T15:37:50;14.40;99.90
11152;DHT22;5630;49.342;10.802;2022-10-20T15:40:17;14.40;99.90
11152;DHT22;5630;49.342;10.802;2022-10-20T15:42:43;14.50;99.90
11152;DHT22;5630;49.342;10.802;2022-10-20T15:45:20;14.50;99.90
11152;DHT22;5630;49.342;10.802;2022-10-20T15:47:46;14.60;99.90
11152;DHT22;5630;49.342;10.802;2022-10-20T15:50:12;14.60;99.90
11152;DHT22;5630;49.342;10.802;2022-10-20T15:52:38;14.70;99.90
11152;DHT22;5630;49.342;10.802;2022-10-20T15:55:25;14.60;99.90
11152;DHT22;5630;49.342;10.802;2022-10-20T15:57:52;14.50;99.90
11152;DHT22;5630;49.342;10.802;2022-10-20T16:00:20;14.50;99.90
11152;DHT22;5630;49.342;10.802;2022-10-20T16:02:46;14.40;99.90
11152;DHT22;5630;49.342;10.802;2022-10-20T16:05:12;14.40;99.90
11152;DHT22;5630;49.342;10.802;2022-10-20T16:07:38;14.30;99.90
11152;DHT22;5630;49.342;10.802;2022-10-20T16:10:05;14.30;99.90
11152;DHT22;5630;49.342;10.802;2022-10-20T16:12:31;14.30;99.90
11152;DHT22;5630;49.342;10.802;2022-10-20T16:14:56;14.20;99.90
11152;DHT22;5630;49.342;10.802;2022-10-20T16:17:22;14.20;99.90
11152;DHT22;5630;49.342;10.802;2022-10-20T16:19:47;14.20;99.90
11152;DHT22;5630;49.342;10.802;2022-10-20T16:22:13;14.10;99.90
11152;DHT22;5630;49.342;10.802;2022-10-20T16:24:38;14.10;99.90
11152;DHT22;5630;49.342;10.802;2022-10-20T16:27:04;14.00;99.90
11152;DHT22;5630;49.342;10.802;2022-10-20T16:29:30;14.00;99.90
11152;DHT22;5630;49.342;10.802;2022-10-20T16:31:56;14.00;99.90
11152;DHT22;5630;49.342;10.802;2022-10-20T16:34:23;14.00;99.90
11152;DHT22;5630;49.342;10.802;2022-10-20T16:36:49;13.90;99.90
11152;DHT22;5630;49.342;10.802;2022-10-20T16:39:15;13.90;99.90
11152;DHT22;5630;49.342;10.802;2022-10-20T16:41:42;13.90;99.90
11152;DHT22;5630;49.342;10.802;2022-10-20T16:44:07;13.90;99.90
11152;DHT22;5630;49.342;10.802;2022-10-20T16:46:33;13.80;99.90
11152;DHT22;5630;49.342;10.802;2022-10-20T16:48:58;13.80;99.90
11152;DHT22;5630;49.342;10.802;2022-10-20T16:51:24;13.80;99.90
11152;DHT22;5630;49.342;10.802;2022-10-20T16:53:49;13.70;99.90
11152;DHT22;5630;49.342;10.802;2022-10-20T16:56:15;13.70;99.90
11152;DHT22;5630;49.342;10.802;2022-10-20T16:58:40;13.70;99.90
11152;DHT22;5630;49.342;10.802;2022-10-20T17:01:11;13.70;99.90
11152;DHT22;5630;49.342;10.802;2022-10-20T17:03:41;13.60;99.90
11152;DHT22;5630;49.342;10.802;2022-10-20T17:06:07;13.60;99.90
11152;DHT22;5630;49.342;10.802;2022-10-20T17:08:34;13.60;99.90
11152;DHT22;5630;49.342;10.802;2022-10-20T17:11:03;13.50;99.90
11152;DHT22;5630;49.342;10.802;2022-10-20T17:13:29;13.50;99.90
11152;DHT22;5630;49.342;10.802;2022-10-20T17:15:56;13.50;99.90
11152;DHT22;5630;49.342;10.802;2022-10-20T17:18:27;13.40;99.90
11152;DHT22;5630;49.342;10.802;2022-10-20T17:20:53;13.40;99.90
11152;DHT22;5630;49.342;10.802;2022-10-20T17:23:20;13.40;99.90
11152;DHT22;5630;49.342;10.802;2022-10-20T17:25:46;13.40;99.90
11152;DHT22;5630;49.342;10.802;2022-10-20T17:28:12;13.40;99.90
11152;DHT22;5630;49.342;10.802;2022-10-20T17:30:45;13.40;99.90
11152;DHT22;5630;49.342;10.802;2022-10-20T17:33:11;13.30;99.90
11152;DHT22;5630;49.342;10.802;2022-10-20T17:35:37;13.30;99.90
11152;DHT22;5630;49.342;10.802;2022-10-20T17:38:03;13.30;99.90
11152;DHT22;5630;49.342;10.802;2022-10-20T17:40:29;13.30;99.90
11152;DHT22;5630;49.342;10.802;2022-10-20T17:42:55;13.30;99.90
11152;DHT22;5630;49.342;10.802;2022-10-20T17:45:21;13.30;99.90
11152;DHT22;5630;49.342;10.802;2022-10-20T17:47:47;13.30;99.90
11152;DHT22;5630;49.342;10.802;2022-10-20T17:50:12;13.30;99.90
11152;DHT22;5630;49.342;10.802;2022-10-20T17:52:38;13.20;99.90
11152;DHT22;5630;49.342;10.802;2022-10-20T17:55:04;13.20;99.90
11152;DHT22;5630;49.342;10.802;2022-10-20T17:57:30;13.20;99.90
11152;DHT22;5630;49.342;10.802;2022-10-20T17:59:55;13.20;99.90
11152;DHT22;5630;49.342;10.802;2022-10-20T18:02:22;13.20;99.90
11152;DHT22;5630;49.342;10.802;2022-10-20T18:04:50;13.10;99.90
11152;DHT22;5630;49.342;10.802;2022-10-20T18:07:16;13.10;99.90
11152;DHT22;5630;49.342;10.802;2022-10-20T18:09:41;13.10;99.90
11152;DHT22;5630;49.342;10.802;2022-10-20T18:12:08;13.10;99.90
11152;DHT22;5630;49.342;10.802;2022-10-20T18:14:34;13.10;99.90
11152;DHT22;5630;49.342;10.802;2022-10-20T18:16:59;13.00;99.90
11152;DHT22;5630;49.342;10.802;2022-10-20T18:19:25;13.10;99.90